Castle Shannon, PA

5:12 PM EDT on October 21, 2019 (GMT -0400)
Washington Junction | | Change Station

Elev 1204 ft 40.35 °N, 80.03 °W | Updated 2 minutes ago

Clear
Clear
75.8 °F
Feels Like 78 °F
N
2
Wind Variable Wind from SW
Gusts 4.2 mph

Today
High -- | Low -- °F
--% Chance of Precip.
Yesterday
High -- | Low -- °F
Precip. -- in
Pressure 29.89 in
Visibility 10.0 miles
Clouds Clear
Heat Index 78 °F
Dew Point 53 °F
Humidity 45%
Rainfall 0.00 in
Snow Depth Not available.
7:37 AM 6:31 PM
Last Quarter, 46% visible
METAR KAGC 212053Z 12012G18KT 10SM CLR 22/07 A2988 RMK AO2 SLP120 T02220072 56018
Pressure 29.89 in
Visibility 10.0 miles
Clouds Clear
Heat Index 78 °F
Dew Point 53 °F
Humidity 45%
Rainfall 0.00 in
Snow Depth Not available.
7:37 AM 6:31 PM
Last Quarter, 46% visible
METAR KAGC 212053Z 12012G18KT 10SM CLR 22/07 A2988 RMK AO2 SLP120 T02220072 56018

Get Severe Weather Alerts

Thanks for signing up!

Be on the lookout for a verification email in your inbox.

You'll start receiving the daily forecast at 6 AM.

×

10-Day Weather Forecast

Almanac

Astronomy

Oct. 21, 2019 Rise Set
Actual Time
Civil Twilight
Nautical Twilight
Astronomical Twilight
Moon
Length of Visible Light
Length of Day
Tomorrow will be .
, % of the Moon is Illuminated

Today's Extremes

State Highs State Lows

Community

WunderPhotos

Category 6

Welcome to Category 6. This is the collective home for Weather Underground's featured writeups by Dr. Jeff Masters (right), Bob Henson (left), Chris Burt, and other regular contributors.

Nearby

Air Quality

  Air Quality AQ Index Pollutant
Not available.

Snow Depth

Station Depth Elevation

Earthquake Activity

City Distance Mag. Time & Date
Minimum magnitude displayed is 2.5.

Coastal Water Temperatures

Place Temperature

Stations

Nearby Weather Stations

Station Location Temp. Windchill Dew Point Humidity Wind Precip. Elev Updated Type
                   

Watches & Warnings

There are currently no watches in effect.